Portada
METAR-TAF:

METAR-TAF

Aeropuertos :

Aeropuerto de Îles-de-la-Madeleine

Islas de la Magdalena, Quebec, Canadá

latitud: 47-25N, longitud: 061-47W, altitud: 10 m

Observación

El informe se hizo hace 16 minutos, a las 10:00 UTC
Viento 13 kt del suroeste con ráfagas de 22 kt
Temperatura -2°C
Humedad 74%
Presión 1023 hPa
Visibilidad: 32.2 km
Cielo nuboso a una altura de 24000 ft

METAR: CYGR 211000Z 23013G22KT 20SM BKN240 M02/M06 A3022 RMK CI5 SLP234

Hora: 06:16 (10:16 UTC)

Pronóstico

El informe se hizo hace 14 horas y 31 minutos, a las 19:45 UTC
Pronóstico válido del 20 a las 20 UTC al 21 a las 02 UTC
Viento 15 kt del oeste-suroeste con ráfagas de 25 kt
Visibilidad: 10 km
Nubes dispersas a una altura de 25000 ft

TAF: CYGR 201945Z 2020/2102 24015G25KT P6SM SCT250 RMK NXT FCST WILL BE ISSUED AT 211045Z

Observaciones y pronósticos meteorológicos de más de 4000 aeropuertos (mensajes METAR y TAF).

Los puntos amarillos y rojos representan las estaciones disponibles.

Ponga el ratón en el punto deseado para ver el nombre de la estación.

Haga clic para ver las observaciones y los pronósticos meteorológicos.

Para cambiar el mapa : haga clic en los botones verdes con una cruz de color negro para hacer un zoom, en el botón verde con un guión para alejar o en las flechas verdes para mapas adyacentes.


METAR-TAF: